createdAt,value
2022-12-12T00:01:17.710Z,13.92
2022-12-12T00:03:44.813Z,13.91
2022-12-12T00:06:11.781Z,13.91
2022-12-12T00:08:38.954Z,13.90
2022-12-12T00:11:06.631Z,13.90
2022-12-12T00:13:34.237Z,13.90
2022-12-12T00:16:01.429Z,13.90
2022-12-12T00:18:28.277Z,13.90
2022-12-12T00:20:56.320Z,13.89
2022-12-12T00:23:24.276Z,13.89
2022-12-12T00:26:06.900Z,13.89
2022-12-12T00:28:34.293Z,13.88
2022-12-12T00:31:01.127Z,13.87
2022-12-12T00:33:28.092Z,13.86
2022-12-12T00:35:55.934Z,13.85
2022-12-12T00:38:23.611Z,13.84
2022-12-12T00:40:55.139Z,13.83
2022-12-12T00:43:22.077Z,13.82
2022-12-12T00:45:49.004Z,13.82
2022-12-12T00:48:16.208Z,13.82
2022-12-12T00:50:43.424Z,13.82
2022-12-12T00:53:10.605Z,13.82
2022-12-12T00:55:37.475Z,13.83
2022-12-12T00:58:04.475Z,13.84
2022-12-12T01:00:31.380Z,13.84
2022-12-12T01:02:59.495Z,13.85
2022-12-12T01:05:26.674Z,13.86
2022-12-12T01:07:54.298Z,13.86
2022-12-12T01:10:21.364Z,13.87
2022-12-12T01:12:48.285Z,13.88
2022-12-12T01:15:16.735Z,13.89
2022-12-12T01:17:43.690Z,13.90
2022-12-12T01:20:18.583Z,13.91
2022-12-12T01:22:45.630Z,13.92
2022-12-12T01:25:13.621Z,13.93
2022-12-12T01:27:40.880Z,13.94
2022-12-12T01:30:08.285Z,13.96
2022-12-12T01:32:35.131Z,13.97
2022-12-12T01:35:02.123Z,13.98
2022-12-12T01:37:28.971Z,13.99
2022-12-12T01:39:55.797Z,14.00
2022-12-12T01:42:22.702Z,14.01
2022-12-12T01:44:50.988Z,14.03
2022-12-12T01:47:19.769Z,14.04
2022-12-12T01:49:52.545Z,14.06
2022-12-12T01:52:25.437Z,14.07
2022-12-12T01:54:55.414Z,14.08
2022-12-12T01:57:30.718Z,14.09
2022-12-12T01:59:58.869Z,14.10
2022-12-12T02:02:25.957Z,14.10
2022-12-12T02:04:52.810Z,14.08
2022-12-12T02:07:19.702Z,14.07
2022-12-12T02:09:47.642Z,14.06
2022-12-12T02:12:15.162Z,14.04
2022-12-12T02:14:45.599Z,14.02
2022-12-12T02:17:31.191Z,13.99
2022-12-12T02:20:18.371Z,13.97
2022-12-12T02:22:51.334Z,13.95
2022-12-12T02:25:30.483Z,13.92
2022-12-12T02:28:03.462Z,13.90
2022-12-12T02:30:30.362Z,13.88
2022-12-12T02:33:00.105Z,13.86
2022-12-12T02:35:45.862Z,13.83
2022-12-12T02:38:13.173Z,13.81
2022-12-12T02:40:58.911Z,13.78
2022-12-12T02:43:30.867Z,13.76
2022-12-12T02:46:04.479Z,13.73
2022-12-12T02:48:41.154Z,13.71
2022-12-12T02:51:10.173Z,13.69
2022-12-12T02:53:36.953Z,13.66
2022-12-12T02:56:08.476Z,13.64
2022-12-12T02:58:38.047Z,13.62
2022-12-12T03:01:11.414Z,13.60
2022-12-12T03:04:17.046Z,13.58
2022-12-12T03:07:02.132Z,13.57
2022-12-12T03:09:29.122Z,13.55
2022-12-12T03:12:05.933Z,13.53
2022-12-12T03:14:51.469Z,13.51
2022-12-12T03:17:40.913Z,13.49
2022-12-12T03:20:19.776Z,13.48
2022-12-12T03:22:58.890Z,13.46
2022-12-12T03:25:49.213Z,13.45
2022-12-12T03:28:26.275Z,13.43
2022-12-12T03:30:55.713Z,13.42
2022-12-12T03:33:27.557Z,13.41
2022-12-12T03:36:05.147Z,13.40
2022-12-12T03:38:34.829Z,13.39
2022-12-12T03:41:04.756Z,13.38
2022-12-12T03:43:37.972Z,13.37
2022-12-12T03:46:12.965Z,13.37
2022-12-12T03:48:45.877Z,13.36
2022-12-12T03:51:18.484Z,13.36
2022-12-12T03:53:45.443Z,13.36
2022-12-12T03:56:12.285Z,13.36
2022-12-12T03:58:43.006Z,13.36
2022-12-12T04:01:11.736Z,13.36
2022-12-12T04:03:38.637Z,13.36
2022-12-12T04:06:24.160Z,13.36
2022-12-12T04:09:11.728Z,13.36
2022-12-12T04:12:01.554Z,13.35
2022-12-12T04:14:41.975Z,13.36
2022-12-12T04:17:11.701Z,13.36
2022-12-12T04:20:13.394Z,13.36
2022-12-12T04:23:02.485Z,13.36
2022-12-12T04:25:32.066Z,13.37
2022-12-12T04:28:02.006Z,13.37
2022-12-12T04:30:30.109Z,13.37
2022-12-12T04:33:08.895Z,13.37
2022-12-12T04:35:37.236Z,13.38
2022-12-12T04:38:05.753Z,13.38
2022-12-12T04:40:35.031Z,13.38
2022-12-12T04:43:07.149Z,13.38
2022-12-12T04:45:36.300Z,13.38
2022-12-12T04:48:05.844Z,13.39
2022-12-12T04:50:33.814Z,13.40
2022-12-12T04:53:02.225Z,13.40
2022-12-12T04:55:31.595Z,13.42
2022-12-12T04:57:58.613Z,13.43
2022-12-12T05:00:28.465Z,13.45
2022-12-12T05:03:10.478Z,13.46
2022-12-12T05:05:43.622Z,13.47
2022-12-12T05:08:19.306Z,13.48
2022-12-12T05:10:50.483Z,13.49
2022-12-12T05:13:18.604Z,13.50
2022-12-12T05:15:46.727Z,13.51
2022-12-12T05:18:13.518Z,13.51
2022-12-12T05:20:40.444Z,13.52
2022-12-12T05:23:07.391Z,13.52
2022-12-12T05:25:34.429Z,13.53
2022-12-12T05:28:01.301Z,13.54
2022-12-12T05:30:28.604Z,13.55
2022-12-12T05:32:55.669Z,13.56
2022-12-12T05:35:22.611Z,13.57
2022-12-12T05:37:52.111Z,13.58
2022-12-12T05:40:19.965Z,13.58
2022-12-12T05:42:47.046Z,13.60
2022-12-12T05:45:14.291Z,13.61
2022-12-12T05:47:41.921Z,13.63
2022-12-12T05:50:08.909Z,13.64
2022-12-12T05:52:35.775Z,13.65
2022-12-12T05:55:02.857Z,13.66
2022-12-12T05:57:29.700Z,13.68
2022-12-12T05:59:56.478Z,13.69
2022-12-12T06:02:23.593Z,13.70
2022-12-12T06:04:50.591Z,13.70
2022-12-12T06:07:17.630Z,13.70
2022-12-12T06:09:44.487Z,13.70
2022-12-12T06:12:11.359Z,13.70
2022-12-12T06:14:38.260Z,13.70
2022-12-12T06:17:05.175Z,13.69
2022-12-12T06:19:32.031Z,13.69
2022-12-12T06:21:58.844Z,13.69
2022-12-12T06:24:25.838Z,13.69
2022-12-12T06:26:52.816Z,13.69
2022-12-12T06:29:21.393Z,13.68
2022-12-12T06:31:48.287Z,13.68
2022-12-12T06:34:15.232Z,13.69
2022-12-12T06:36:42.088Z,13.69
2022-12-12T06:39:09.924Z,13.69
2022-12-12T06:41:36.952Z,13.70
2022-12-12T06:44:04.530Z,13.71
2022-12-12T06:46:31.675Z,13.72
2022-12-12T06:48:58.542Z,13.74
2022-12-12T06:51:26.668Z,13.75
2022-12-12T06:53:53.752Z,13.77
2022-12-12T06:56:22.886Z,13.78
2022-12-12T06:58:49.919Z,13.80
2022-12-12T07:01:21.824Z,13.82
2022-12-12T07:03:50.414Z,13.84
2022-12-12T07:06:17.770Z,13.87
2022-12-12T07:08:44.872Z,13.90
2022-12-12T07:11:14.967Z,13.93
2022-12-12T07:13:42.082Z,13.96
2022-12-12T07:16:09.563Z,13.99
2022-12-12T07:18:39.299Z,14.01
2022-12-12T07:21:07.559Z,14.04
2022-12-12T07:23:34.829Z,14.08
2022-12-12T07:26:06.485Z,14.12
2022-12-12T07:28:33.529Z,14.16
2022-12-12T07:31:01.527Z,14.20
2022-12-12T07:33:39.569Z,14.25
2022-12-12T07:36:10.419Z,14.30
2022-12-12T07:38:37.452Z,14.36
2022-12-12T07:41:05.355Z,14.43
2022-12-12T07:43:33.211Z,14.52
2022-12-12T07:46:00.871Z,14.61
2022-12-12T07:48:28.426Z,14.71
2022-12-12T07:50:55.269Z,14.80
2022-12-12T07:53:22.062Z,14.91
2022-12-12T07:55:48.955Z,15.01
2022-12-12T07:58:15.818Z,15.10
2022-12-12T08:00:42.862Z,15.19
2022-12-12T08:03:09.795Z,15.25
2022-12-12T08:05:39.840Z,15.31
2022-12-12T08:08:07.090Z,15.35
2022-12-12T08:10:34.013Z,15.39
2022-12-12T08:13:01.125Z,15.41
2022-12-12T08:15:27.965Z,15.43
2022-12-12T08:17:54.888Z,15.44
2022-12-12T08:20:23.106Z,15.45
2022-12-12T08:22:50.087Z,15.46
2022-12-12T08:25:17.202Z,15.47
2022-12-12T08:27:44.244Z,15.48
2022-12-12T08:30:11.146Z,15.49
2022-12-12T08:32:38.882Z,15.51
2022-12-12T08:35:05.947Z,15.51
2022-12-12T08:37:32.871Z,15.52
2022-12-12T08:39:59.770Z,15.52
2022-12-12T08:42:26.864Z,15.52
2022-12-12T08:44:53.726Z,15.52
2022-12-12T08:47:20.750Z,15.53
2022-12-12T08:49:47.691Z,15.52
2022-12-12T08:52:14.704Z,15.52
2022-12-12T08:54:41.588Z,15.52
2022-12-12T08:57:08.708Z,15.53
2022-12-12T08:59:35.845Z,15.52
2022-12-12T09:02:02.903Z,15.52
2022-12-12T09:04:29.937Z,15.52
2022-12-12T09:06:56.744Z,15.52
2022-12-12T09:09:24.150Z,15.52
2022-12-12T09:11:50.955Z,15.52
2022-12-12T09:14:17.953Z,15.52
2022-12-12T09:16:44.877Z,15.54
2022-12-12T09:19:11.872Z,15.54
2022-12-12T09:21:38.692Z,15.56
2022-12-12T09:24:05.748Z,15.57
2022-12-12T09:26:32.659Z,15.59
2022-12-12T09:30:48.063Z,15.66
2022-12-12T09:33:16.648Z,15.59
2022-12-12T09:35:44.338Z,15.37
2022-12-12T09:38:14.589Z,15.21
2022-12-12T09:40:50.841Z,15.07
2022-12-12T09:43:26.137Z,14.94
2022-12-12T09:46:00.305Z,14.89
2022-12-12T09:48:31.150Z,14.87
2022-12-12T09:50:58.430Z,14.91
2022-12-12T09:53:26.771Z,14.94
2022-12-12T09:56:25.016Z,14.92
2022-12-12T09:59:08.637Z,14.94
2022-12-12T10:02:05.765Z,14.87
2022-12-12T10:04:50.789Z,14.84
2022-12-12T10:07:35.138Z,14.81
2022-12-12T10:10:33.240Z,14.76
2022-12-12T10:13:03.276Z,14.75
2022-12-12T10:15:42.488Z,14.81
2022-12-12T10:18:21.469Z,14.80
2022-12-12T10:20:51.562Z,14.77
2022-12-12T10:23:54.167Z,14.77
2022-12-12T10:26:28.142Z,14.80
2022-12-12T10:29:03.221Z,14.89
2022-12-12T10:31:53.011Z,14.96
2022-12-12T10:34:55.474Z,15.00
2022-12-12T10:37:44.521Z,14.96
2022-12-12T10:40:20.251Z,14.96
2022-12-12T10:42:58.666Z,15.00
2022-12-12T10:45:50.720Z,14.98
2022-12-12T10:48:18.159Z,14.95
2022-12-12T10:50:51.062Z,14.91
2022-12-12T10:53:20.330Z,14.89
2022-12-12T10:56:00.767Z,14.80
2022-12-12T10:58:42.949Z,14.72
2022-12-12T11:01:38.455Z,14.72
2022-12-12T11:04:09.043Z,14.75
2022-12-12T11:06:45.442Z,14.80
2022-12-12T11:09:25.703Z,14.77
2022-12-12T11:12:05.271Z,14.67
2022-12-12T11:14:35.407Z,14.63
2022-12-12T11:17:31.038Z,14.71
2022-12-12T11:20:00.167Z,14.61
2022-12-12T11:22:28.315Z,14.59
2022-12-12T11:24:55.442Z,14.54
2022-12-12T11:27:38.381Z,14.51
2022-12-12T11:30:10.678Z,14.46
2022-12-12T11:32:48.866Z,14.40
2022-12-12T11:35:33.797Z,14.42
2022-12-12T11:38:16.945Z,14.42
2022-12-12T11:40:44.926Z,14.47
2022-12-12T11:43:37.018Z,14.45
2022-12-12T11:46:14.309Z,14.51
2022-12-12T11:48:56.466Z,14.65
2022-12-12T11:51:44.540Z,14.93
2022-12-12T11:54:32.247Z,14.87
2022-12-12T11:57:42.960Z,15.04
2022-12-12T12:00:35.538Z,15.03
2022-12-12T12:03:18.791Z,15.03
2022-12-12T12:06:09.670Z,15.06
2022-12-12T12:09:20.082Z,15.20
2022-12-12T12:12:08.431Z,15.38
2022-12-12T12:14:56.519Z,15.57
2022-12-12T12:18:01.790Z,15.55
2022-12-12T12:20:47.034Z,15.73
2022-12-12T12:23:14.185Z,16.18
2022-12-12T12:26:07.602Z,16.39
2022-12-12T12:28:59.254Z,16.73
2022-12-12T12:31:49.470Z,16.94
2022-12-12T12:34:39.021Z,17.22
2022-12-12T12:37:17.593Z,17.67
2022-12-12T12:39:58.286Z,17.88
2022-12-12T12:42:49.479Z,17.93
2022-12-12T12:45:39.693Z,17.98
2022-12-12T12:48:20.530Z,18.05
2022-12-12T12:51:24.056Z,18.39
2022-12-12T12:54:06.907Z,18.55
2022-12-12T12:56:49.123Z,18.61
2022-12-12T12:59:23.349Z,18.89
2022-12-12T13:01:53.284Z,18.97
2022-12-12T13:04:27.102Z,18.18
2022-12-12T13:07:13.089Z,17.10
2022-12-12T13:10:03.591Z,16.46
2022-12-12T13:13:10.260Z,16.06
2022-12-12T13:15:43.897Z,15.89
2022-12-12T13:18:16.244Z,15.91
2022-12-12T13:20:48.023Z,15.97
2022-12-12T13:23:41.851Z,15.91
2022-12-12T13:26:20.819Z,15.93
2022-12-12T13:29:06.700Z,16.02
2022-12-12T13:31:54.268Z,16.08
2022-12-12T13:34:26.297Z,16.03
2022-12-12T13:36:56.433Z,16.00
2022-12-12T13:39:29.230Z,16.02
2022-12-12T13:42:02.091Z,15.93
2022-12-12T13:44:37.912Z,15.90
2022-12-12T13:47:13.247Z,16.02
2022-12-12T13:49:53.605Z,16.18
2022-12-12T13:52:28.326Z,16.30
2022-12-12T13:55:18.064Z,16.28
2022-12-12T13:57:51.145Z,16.27
2022-12-12T14:00:20.183Z,16.27
2022-12-12T14:03:04.304Z,16.18
2022-12-12T14:05:35.618Z,16.13
2022-12-12T14:08:11.673Z,16.08
2022-12-12T14:11:03.264Z,16.00
2022-12-12T14:13:45.403Z,15.98
2022-12-12T14:16:41.791Z,15.98
2022-12-12T14:19:25.837Z,15.96
2022-12-12T14:21:53.209Z,15.97
2022-12-12T14:25:18.850Z,15.98
2022-12-12T14:27:51.841Z,15.97
2022-12-12T14:30:24.619Z,15.93
2022-12-12T14:33:23.956Z,15.93
2022-12-12T14:36:12.662Z,15.85
2022-12-12T14:39:03.344Z,15.79
2022-12-12T14:41:35.458Z,15.82
2022-12-12T14:44:37.632Z,15.87
2022-12-12T14:46:55.209Z,15.76
2022-12-12T14:49:22.236Z,15.65
2022-12-12T14:51:54.838Z,15.65
2022-12-12T14:54:24.654Z,15.56
2022-12-12T14:56:55.519Z,15.54
2022-12-12T14:59:32.960Z,15.53
2022-12-12T15:02:21.695Z,15.50
2022-12-12T15:04:53.328Z,15.57
2022-12-12T15:07:27.938Z,15.56
2022-12-12T15:09:55.631Z,15.56
2022-12-12T15:12:31.916Z,15.56
2022-12-12T15:14:59.652Z,15.57
2022-12-12T15:17:26.719Z,15.53
2022-12-12T15:20:07.257Z,15.52
2022-12-12T15:22:48.834Z,15.50
2022-12-12T15:25:19.745Z,15.46
2022-12-12T15:27:55.742Z,15.48
2022-12-12T15:30:32.423Z,15.45
2022-12-12T15:33:01.284Z,15.35
2022-12-12T15:35:28.704Z,15.31
2022-12-12T15:38:10.806Z,15.28
2022-12-12T15:40:39.781Z,15.24
2022-12-12T15:43:14.817Z,15.17
2022-12-12T15:46:16.302Z,15.04
2022-12-12T15:48:44.712Z,15.02
2022-12-12T15:51:13.346Z,15.06
2022-12-12T15:53:46.419Z,15.01
2022-12-12T15:56:23.220Z,14.97
2022-12-12T15:59:05.062Z,14.95
2022-12-12T16:01:32.264Z,14.97
2022-12-12T16:04:01.469Z,15.16
2022-12-12T16:06:34.811Z,15.15
2022-12-12T16:09:01.719Z,15.06
2022-12-12T16:11:52.469Z,15.01
2022-12-12T16:14:43.272Z,15.02
2022-12-12T16:17:29.194Z,14.96
2022-12-12T16:20:06.057Z,14.95
2022-12-12T16:22:33.145Z,15.06
2022-12-12T16:25:25.901Z,15.14
2022-12-12T16:27:58.800Z,15.15
2022-12-12T16:30:27.437Z,15.12
2022-12-12T16:32:55.169Z,15.09
2022-12-12T16:35:24.602Z,15.09
2022-12-12T16:37:53.718Z,15.09
2022-12-12T16:40:21.603Z,15.07
2022-12-12T16:43:09.530Z,15.04
2022-12-12T16:45:40.906Z,15.02
2022-12-12T16:48:24.777Z,15.06
2022-12-12T16:50:56.396Z,15.04
2022-12-12T16:53:23.604Z,15.01
2022-12-12T16:55:52.579Z,15.00
2022-12-12T16:58:23.124Z,15.03
2022-12-12T17:00:55.246Z,14.96
2022-12-12T17:03:23.778Z,14.91
2022-12-12T17:05:51.546Z,14.80
2022-12-12T17:08:20.101Z,14.74
2022-12-12T17:10:50.082Z,14.70
2022-12-12T17:13:22.300Z,14.64
2022-12-12T17:15:50.264Z,14.60
2022-12-12T17:18:17.573Z,14.67
2022-12-12T17:20:45.569Z,14.73
2022-12-12T17:23:27.517Z,14.74
2022-12-12T17:26:00.699Z,14.80
2022-12-12T17:28:30.001Z,14.75
2022-12-12T17:30:57.216Z,14.75
2022-12-12T17:33:24.488Z,14.72
2022-12-12T17:36:03.786Z,14.62
2022-12-12T17:38:30.932Z,14.57
2022-12-12T17:41:02.007Z,14.52
2022-12-12T17:43:29.177Z,14.42
2022-12-12T17:46:02.001Z,14.34
2022-12-12T17:48:31.477Z,14.29
2022-12-12T17:51:00.605Z,14.23
2022-12-12T17:53:32.508Z,14.13
2022-12-12T17:56:01.003Z,14.02
2022-12-12T18:05:03.848Z,13.71
2022-12-12T18:07:30.921Z,13.61
2022-12-12T18:09:57.898Z,13.58
2022-12-12T18:12:25.020Z,13.56
2022-12-12T18:14:52.153Z,13.57
2022-12-12T18:17:19.195Z,13.61
2022-12-12T18:19:46.338Z,13.60
2022-12-12T18:22:13.496Z,13.62
2022-12-12T18:24:41.049Z,13.64
2022-12-12T18:27:08.213Z,13.59
2022-12-12T18:29:36.630Z,13.51
2022-12-12T18:32:05.102Z,13.43
2022-12-12T18:34:32.327Z,13.38
2022-12-12T18:36:59.491Z,13.29
2022-12-12T18:39:26.616Z,13.22
2022-12-12T18:41:53.947Z,13.17
2022-12-12T18:44:20.984Z,13.08
2022-12-12T18:46:50.790Z,13.01
2022-12-12T18:49:18.622Z,12.94
2022-12-12T18:51:46.973Z,12.90
2022-12-12T18:54:16.116Z,12.86
2022-12-12T18:56:45.406Z,12.82
2022-12-12T18:59:13.696Z,12.81
2022-12-12T19:01:41.329Z,12.75
2022-12-12T19:04:12.499Z,12.70
2022-12-12T19:06:42.510Z,12.66
2022-12-12T19:09:14.699Z,12.60
2022-12-12T19:11:42.810Z,12.55
2022-12-12T19:14:11.939Z,12.51
2022-12-12T19:16:39.544Z,12.42
2022-12-12T19:19:09.161Z,12.36
2022-12-12T19:21:38.629Z,12.28
2022-12-12T19:24:09.416Z,12.29
2022-12-12T19:26:37.758Z,12.30
2022-12-12T19:29:08.165Z,12.34
2022-12-12T19:31:36.272Z,12.37
2022-12-12T19:34:08.079Z,12.43
2022-12-12T19:36:36.101Z,12.50
2022-12-12T19:39:06.127Z,12.46
2022-12-12T19:41:35.360Z,12.42
2022-12-12T19:44:04.364Z,12.45
2022-12-12T19:46:32.742Z,12.44
2022-12-12T19:49:05.810Z,12.37
2022-12-12T19:51:36.054Z,12.29
2022-12-12T19:54:08.064Z,12.26
2022-12-12T19:56:36.857Z,12.27
2022-12-12T19:59:05.641Z,12.27
2022-12-12T20:01:35.485Z,12.27
2022-12-12T20:04:07.439Z,12.34
2022-12-12T20:06:41.524Z,12.33
2022-12-12T20:09:10.360Z,12.33
2022-12-12T20:11:38.936Z,12.26
2022-12-12T20:14:06.781Z,12.23
2022-12-12T20:16:33.805Z,12.23
2022-12-12T20:19:01.947Z,12.21
2022-12-12T20:21:59.839Z,12.24
2022-12-12T20:24:18.619Z,12.28
2022-12-12T20:26:48.009Z,12.27
2022-12-12T20:29:15.216Z,12.30
2022-12-12T20:31:46.322Z,12.35
2022-12-12T20:34:15.461Z,12.29
2022-12-12T20:36:44.272Z,12.21
2022-12-12T20:39:19.609Z,12.17
2022-12-12T20:41:47.208Z,12.11
2022-12-12T20:44:14.808Z,12.09
2022-12-12T20:46:44.539Z,12.12
2022-12-12T20:49:17.711Z,12.18
2022-12-12T20:52:01.199Z,12.15
2022-12-12T20:54:29.871Z,12.15
2022-12-12T20:56:58.874Z,12.14
2022-12-12T20:59:27.101Z,12.12
2022-12-12T21:01:54.582Z,12.11
2022-12-12T21:04:22.767Z,12.09
2022-12-12T21:06:51.975Z,12.10
2022-12-12T21:09:25.749Z,12.11
2022-12-12T21:11:58.583Z,12.12
2022-12-12T21:14:28.033Z,12.14
2022-12-12T21:16:57.168Z,12.23
2022-12-12T21:19:24.541Z,12.31
2022-12-12T21:21:53.412Z,12.38
2022-12-12T21:24:21.345Z,12.37
2022-12-12T21:26:49.315Z,12.31
2022-12-12T21:29:17.427Z,12.31
2022-12-12T21:31:51.014Z,12.30
2022-12-12T21:34:21.659Z,12.26
2022-12-12T21:36:54.690Z,12.26
2022-12-12T21:39:28.076Z,12.29
2022-12-12T21:41:55.939Z,12.27
2022-12-12T21:44:23.633Z,12.23
2022-12-12T21:46:51.451Z,12.18
2022-12-12T21:49:28.509Z,12.17
2022-12-12T21:51:58.547Z,12.13
2022-12-12T21:54:26.563Z,12.07
2022-12-12T21:56:53.713Z,12.07
2022-12-12T21:59:21.298Z,12.05
2022-12-12T22:01:48.482Z,12.06
2022-12-12T22:04:15.688Z,12.06
2022-12-12T22:06:45.364Z,12.08
2022-12-12T22:09:13.314Z,12.01
2022-12-12T22:11:49.284Z,11.95
2022-12-12T22:14:19.695Z,11.89
2022-12-12T22:16:46.801Z,11.79
2022-12-12T22:19:15.612Z,11.74
2022-12-12T22:21:46.708Z,11.71
2022-12-12T22:24:14.732Z,11.65
2022-12-12T22:26:44.571Z,11.69
2022-12-12T22:29:15.687Z,11.64
2022-12-12T22:31:44.017Z,11.65
2022-12-12T22:34:18.037Z,11.63
2022-12-12T22:36:46.570Z,11.67
2022-12-12T22:39:20.522Z,11.67
2022-12-12T22:41:48.091Z,11.65
2022-12-12T22:44:16.969Z,11.67
2022-12-12T22:46:45.848Z,11.64
2022-12-12T22:49:14.856Z,11.59
2022-12-12T22:51:43.179Z,11.54
2022-12-12T22:54:10.945Z,11.55
2022-12-12T22:56:39.344Z,11.54
2022-12-12T22:59:08.438Z,11.53
2022-12-12T23:01:36.076Z,11.50
2022-12-12T23:04:03.388Z,11.49
2022-12-12T23:06:33.672Z,11.46
2022-12-12T23:09:04.498Z,11.45
2022-12-12T23:11:32.256Z,11.45
2022-12-12T23:14:02.001Z,11.41
2022-12-12T23:16:31.076Z,11.38
2022-12-12T23:18:59.052Z,11.36
2022-12-12T23:21:27.311Z,11.36
2022-12-12T23:23:55.796Z,11.32
2022-12-12T23:26:29.980Z,11.26
2022-12-12T23:28:59.048Z,11.25
2022-12-12T23:31:32.461Z,11.30
2022-12-12T23:34:02.342Z,11.29
2022-12-12T23:36:30.226Z,11.29
2022-12-12T23:39:01.203Z,11.29
2022-12-12T23:41:29.089Z,11.27
2022-12-12T23:43:56.851Z,11.30
2022-12-12T23:46:34.380Z,11.25
2022-12-12T23:49:06.300Z,11.26
2022-12-12T23:51:36.944Z,11.24
2022-12-12T23:54:06.865Z,11.23
2022-12-12T23:56:34.424Z,11.24
2022-12-12T23:59:01.965Z,11.21
